Malmedy, Belgium
Current Conditions -  °F | °C
As of 9:25 AM on Saturday 25 Oct 2014 (Local Time) from EBLB Reporting Station
Overcast Overcast  
Wind Chill: 46°   Ceiling: 200
Heat Index: 46°   Visibility: 0.46mi
Dew Point: 46°   Wind: 2mph
Humidity: 100%   Direction: NA
Pressure: 30.09"   Gusts: NA
Location:  50.43°N, 6.03°E
Report Text: EBLB 250725Z AUTO VRB02KT 0750 VV002/// 08/08 Q1019 RED
Loading
Personal Weather Stations






























Interactive Weather Map
Tropical Storm Tracking
New forecast layout! Learn more

10-Day Weather Forecast

Advertisements
Track Severe Weather on mobile